createdAt,value
2022-10-05T00:00:21.482Z,89.61
2022-10-05T00:02:49.563Z,89.19
2022-10-05T00:05:27.672Z,91.02
2022-10-05T00:07:57.967Z,91.04
2022-10-05T00:10:25.600Z,90.48
2022-10-05T00:12:54.506Z,90.86
2022-10-05T00:15:23.393Z,90.92
2022-10-05T00:17:50.857Z,91.71
2022-10-05T00:20:22.356Z,91.47
2022-10-05T00:22:51.627Z,91.65
2022-10-05T00:25:21.152Z,91.67
2022-10-05T00:27:54.925Z,91.14
2022-10-05T00:30:24.095Z,91.47
2022-10-05T00:32:53.885Z,91.33
2022-10-05T00:35:25.152Z,91.77
2022-10-05T00:37:54.602Z,91.26
2022-10-05T00:40:33.853Z,91.66
2022-10-05T00:43:13.770Z,91.71
2022-10-05T00:45:45.205Z,91.67
2022-10-05T00:48:17.632Z,91.96
2022-10-05T00:50:55.088Z,92.00
2022-10-05T00:53:31.478Z,92.19
2022-10-05T00:56:04.785Z,91.68
2022-10-05T00:58:42.302Z,92.19
2022-10-05T01:01:13.081Z,92.09
2022-10-05T01:03:50.869Z,91.79
2022-10-05T01:06:24.060Z,92.41
2022-10-05T01:08:59.372Z,91.93
2022-10-05T01:11:31.034Z,92.39
2022-10-05T01:14:06.739Z,91.72
2022-10-05T01:16:40.962Z,92.35
2022-10-05T01:19:15.253Z,92.54
2022-10-05T01:21:47.333Z,92.53
2022-10-05T01:24:31.489Z,92.13
2022-10-05T01:27:17.966Z,91.66
2022-10-05T01:29:50.850Z,91.77
2022-10-05T01:32:24.625Z,92.15
2022-10-05T01:34:56.254Z,91.50
2022-10-05T01:37:27.931Z,91.87
2022-10-05T01:40:03.490Z,91.63
2022-10-05T01:42:39.745Z,92.06
2022-10-05T01:45:12.122Z,91.88
2022-10-05T01:47:44.963Z,91.97
2022-10-05T01:50:21.032Z,92.28
2022-10-05T01:52:54.392Z,91.89
2022-10-05T01:55:27.963Z,92.00
2022-10-05T01:58:07.277Z,92.38
2022-10-05T02:00:43.294Z,92.50
2022-10-05T02:03:14.190Z,92.54
2022-10-05T02:05:47.398Z,92.72
2022-10-05T02:08:17.119Z,92.60
2022-10-05T02:10:49.336Z,93.14
2022-10-05T02:13:21.823Z,93.71
2022-10-05T02:15:54.917Z,93.53
2022-10-05T02:18:25.093Z,93.08
2022-10-05T02:20:56.079Z,93.22
2022-10-05T02:23:28.437Z,92.95
2022-10-05T02:25:57.641Z,93.21
2022-10-05T02:28:28.806Z,93.15
2022-10-05T02:31:01.812Z,93.80
2022-10-05T02:33:32.887Z,93.61
2022-10-05T02:36:12.810Z,92.65
2022-10-05T02:38:47.921Z,93.14
2022-10-05T02:41:21.727Z,93.27
2022-10-05T02:43:55.021Z,93.56
2022-10-05T02:46:30.796Z,93.42
2022-10-05T02:49:09.557Z,92.93
2022-10-05T02:51:44.486Z,93.43
2022-10-05T02:54:16.928Z,93.69
2022-10-05T02:56:51.702Z,93.72
2022-10-05T02:59:23.913Z,93.34
2022-10-05T03:01:55.929Z,93.70
2022-10-05T03:04:30.366Z,93.65
2022-10-05T03:07:06.137Z,93.07
2022-10-05T03:09:38.482Z,92.98
2022-10-05T03:12:13.643Z,92.32
2022-10-05T03:14:46.486Z,92.66
2022-10-05T03:17:17.288Z,92.01
2022-10-05T03:19:56.694Z,92.60
2022-10-05T03:22:34.002Z,92.25
2022-10-05T03:25:18.315Z,92.26
2022-10-05T03:28:06.201Z,92.43
2022-10-05T03:30:38.438Z,92.44
2022-10-05T03:33:15.085Z,92.21
2022-10-05T03:35:52.733Z,91.98
2022-10-05T03:38:26.333Z,92.69
2022-10-05T03:40:58.235Z,92.45
2022-10-05T03:43:41.729Z,92.44
2022-10-05T03:46:13.426Z,92.22
2022-10-05T03:48:48.934Z,92.51
2022-10-05T03:51:18.263Z,92.16
2022-10-05T03:53:50.623Z,93.01
2022-10-05T03:56:29.061Z,93.25
2022-10-05T03:59:00.095Z,93.52
2022-10-05T04:01:38.510Z,93.20
2022-10-05T04:04:12.463Z,93.16
2022-10-05T04:06:43.435Z,92.69
2022-10-05T04:09:14.958Z,93.70
2022-10-05T04:11:49.973Z,93.54
2022-10-05T04:14:20.886Z,93.90
2022-10-05T04:16:51.196Z,93.56
2022-10-05T04:19:23.175Z,93.60
2022-10-05T04:21:53.477Z,93.39
2022-10-05T04:24:25.814Z,93.44
2022-10-05T04:26:56.854Z,93.87
2022-10-05T04:29:31.801Z,93.73
2022-10-05T04:32:22.433Z,93.74
2022-10-05T04:34:58.283Z,93.58
2022-10-05T04:37:34.441Z,92.82
2022-10-05T04:40:11.642Z,93.62
2022-10-05T04:42:45.009Z,94.45
2022-10-05T04:45:19.966Z,94.17
2022-10-05T04:47:59.680Z,95.15
2022-10-05T04:50:38.989Z,94.83
2022-10-05T04:53:18.646Z,94.37
2022-10-05T04:55:52.905Z,95.21
2022-10-05T04:58:25.228Z,94.90
2022-10-05T05:01:03.285Z,95.56
2022-10-05T05:03:49.076Z,95.52
2022-10-05T05:06:25.998Z,95.20
2022-10-05T05:09:06.826Z,95.15
2022-10-05T05:11:35.957Z,96.17
2022-10-05T05:14:17.386Z,96.75
2022-10-05T05:16:47.219Z,95.83
2022-10-05T05:19:26.145Z,97.90
2022-10-05T05:22:01.297Z,97.29
2022-10-05T05:24:40.070Z,96.78
2022-10-05T05:27:27.843Z,96.58
2022-10-05T05:30:03.668Z,96.78
2022-10-05T05:32:40.019Z,97.07
2022-10-05T05:35:31.086Z,96.93
2022-10-05T05:38:11.992Z,96.99
2022-10-05T05:40:46.957Z,97.36
2022-10-05T05:43:24.317Z,98.31
2022-10-05T05:45:58.397Z,97.42
2022-10-05T05:48:31.779Z,97.68
2022-10-05T05:51:03.177Z,98.29
2022-10-05T05:53:34.979Z,98.56
2022-10-05T05:56:08.747Z,98.84
2022-10-05T05:58:41.594Z,98.46
2022-10-05T06:01:30.709Z,98.26
2022-10-05T06:04:03.010Z,97.77
2022-10-05T06:06:32.622Z,98.39
2022-10-05T06:09:05.277Z,98.33
2022-10-05T06:11:42.560Z,98.12
2022-10-05T06:14:14.181Z,97.39
2022-10-05T06:16:46.472Z,97.51
2022-10-05T06:19:16.762Z,97.14
2022-10-05T06:21:51.122Z,96.93
2022-10-05T06:24:23.337Z,97.60
2022-10-05T06:27:14.001Z,97.50
2022-10-05T06:30:03.582Z,97.63
2022-10-05T06:32:34.350Z,96.42
2022-10-05T06:35:12.718Z,96.29
2022-10-05T06:37:55.548Z,95.81
2022-10-05T06:40:31.569Z,95.54
2022-10-05T06:43:26.271Z,95.32
2022-10-05T06:46:16.880Z,95.08
2022-10-05T06:49:15.259Z,94.62
2022-10-05T06:51:56.845Z,94.06
2022-10-05T06:54:44.713Z,93.66
2022-10-05T06:57:24.910Z,93.65
2022-10-05T07:00:00.253Z,93.20
2022-10-05T07:02:35.635Z,92.10
2022-10-05T07:05:22.319Z,91.03
2022-10-05T07:07:54.862Z,91.43
2022-10-05T07:10:29.068Z,92.14
2022-10-05T07:13:07.345Z,90.98
2022-10-05T07:15:43.590Z,91.20
2022-10-05T07:18:27.018Z,91.23
2022-10-05T07:21:00.755Z,89.82
2022-10-05T07:23:43.765Z,90.43
2022-10-05T07:26:16.615Z,89.62
2022-10-05T07:28:49.366Z,88.59
2022-10-05T07:31:25.416Z,88.05
2022-10-05T07:33:59.957Z,86.82
2022-10-05T07:36:54.994Z,85.79
2022-10-05T07:39:55.435Z,84.51
2022-10-05T07:42:25.875Z,82.70
2022-10-05T07:44:58.974Z,82.44
2022-10-05T07:47:34.601Z,81.68
2022-10-05T07:50:04.711Z,80.86
2022-10-05T07:52:34.979Z,82.87
2022-10-05T07:55:05.215Z,81.92
2022-10-05T07:57:38.864Z,81.80
2022-10-05T08:00:14.703Z,83.03
2022-10-05T08:02:49.101Z,83.45
2022-10-05T08:05:21.056Z,82.48
2022-10-05T08:07:53.301Z,83.08
2022-10-05T08:10:28.671Z,81.85
2022-10-05T08:13:04.190Z,82.86
2022-10-05T08:15:38.218Z,81.65
2022-10-05T08:18:12.745Z,82.00
2022-10-05T08:20:43.672Z,82.35
2022-10-05T08:23:18.754Z,81.72
2022-10-05T08:25:55.927Z,80.78
2022-10-05T08:28:25.439Z,82.51
2022-10-05T08:30:57.877Z,81.98
2022-10-05T08:33:26.585Z,80.98
2022-10-05T08:36:01.487Z,79.38
2022-10-05T08:38:32.795Z,81.66
2022-10-05T08:41:12.210Z,81.74
2022-10-05T08:44:03.329Z,81.58
2022-10-05T08:46:47.955Z,83.35
2022-10-05T08:49:35.270Z,82.32
2022-10-05T08:52:22.175Z,79.31
2022-10-05T08:55:18.567Z,79.90
2022-10-05T08:58:31.618Z,79.80
2022-10-05T09:01:02.989Z,81.67
2022-10-05T09:03:54.475Z,81.26
2022-10-05T09:06:46.802Z,81.98
2022-10-05T09:09:29.155Z,81.82
2022-10-05T09:12:07.187Z,82.32
2022-10-05T09:14:40.685Z,83.00
2022-10-05T09:17:15.744Z,80.84
2022-10-05T09:20:01.362Z,82.85
2022-10-05T09:22:59.703Z,82.30
2022-10-05T09:25:45.157Z,83.59
2022-10-05T09:28:24.453Z,84.14
2022-10-05T09:30:58.702Z,82.94
2022-10-05T09:34:12.269Z,81.60
2022-10-05T09:37:23.470Z,82.89
2022-10-05T09:40:12.831Z,83.17
2022-10-05T09:43:00.383Z,82.00
2022-10-05T09:45:39.787Z,82.64
2022-10-05T09:48:29.215Z,81.64
2022-10-05T09:51:26.777Z,81.31
2022-10-05T09:54:18.027Z,78.41
2022-10-05T09:57:04.126Z,79.49
2022-10-05T09:59:55.343Z,77.32
2022-10-05T10:02:31.880Z,75.92
2022-10-05T10:05:08.681Z,76.79
2022-10-05T10:08:04.729Z,77.39
2022-10-05T10:11:04.059Z,78.51
2022-10-05T10:13:53.715Z,77.84
2022-10-05T10:16:38.946Z,75.55
2022-10-05T10:19:35.563Z,77.27
2022-10-05T10:22:11.790Z,75.37
2022-10-05T10:24:52.375Z,75.44
2022-10-05T10:27:37.211Z,76.42
2022-10-05T10:30:34.428Z,75.70
2022-10-05T10:33:26.598Z,77.76
2022-10-05T10:35:56.659Z,75.87
2022-10-05T10:38:30.990Z,73.61
2022-10-05T10:41:27.072Z,73.72
2022-10-05T10:44:39.639Z,73.68
2022-10-05T10:47:26.206Z,73.58
2022-10-05T10:50:23.143Z,70.74
2022-10-05T10:53:05.416Z,71.55
2022-10-05T10:55:39.740Z,73.43
2022-10-05T10:58:37.948Z,71.72
2022-10-05T11:01:17.372Z,70.62
2022-10-05T11:04:00.255Z,72.82
2022-10-05T11:07:03.407Z,72.46
2022-10-05T11:09:41.438Z,73.35
2022-10-05T11:12:36.054Z,72.39
2022-10-05T11:15:12.777Z,69.78
2022-10-05T11:17:56.825Z,71.85
2022-10-05T11:20:45.897Z,69.34
2022-10-05T11:23:28.015Z,72.34
2022-10-05T11:26:18.108Z,71.10
2022-10-05T11:29:11.417Z,71.10
2022-10-05T11:35:25.134Z,71.48
2022-10-05T11:38:15.190Z,69.74
2022-10-05T11:41:04.701Z,70.48
2022-10-05T11:43:47.897Z,70.24
2022-10-05T11:46:20.320Z,71.47
2022-10-05T11:48:56.801Z,72.74
2022-10-05T11:51:35.719Z,69.13
2022-10-05T11:54:17.483Z,71.62
2022-10-05T11:56:50.840Z,68.99
2022-10-05T11:59:26.526Z,70.82
2022-10-05T12:01:58.767Z,68.68
2022-10-05T12:04:34.293Z,69.83
2022-10-05T12:07:14.305Z,72.00
2022-10-05T12:10:18.877Z,73.17
2022-10-05T12:12:54.640Z,70.80
2022-10-05T12:15:26.790Z,71.19
2022-10-05T12:17:58.960Z,71.90
2022-10-05T12:20:31.107Z,73.59
2022-10-05T12:23:01.730Z,70.98
2022-10-05T12:25:35.255Z,68.87
2022-10-05T12:28:05.487Z,70.17
2022-10-05T12:30:52.779Z,70.76
2022-10-05T12:33:22.386Z,69.67
2022-10-05T12:35:53.877Z,69.48
2022-10-05T12:38:29.237Z,73.23
2022-10-05T12:41:05.264Z,69.61
2022-10-05T12:43:40.962Z,69.43
2022-10-05T12:46:17.719Z,69.63
2022-10-05T12:49:06.294Z,67.95
2022-10-05T12:51:39.882Z,68.64
2022-10-05T12:54:18.493Z,70.07
2022-10-05T12:56:53.274Z,68.97
2022-10-05T12:59:29.481Z,67.71
2022-10-05T13:02:02.359Z,65.98
2022-10-05T13:04:40.166Z,68.75
2022-10-05T13:07:32.212Z,67.86
2022-10-05T13:10:04.888Z,66.72
2022-10-05T13:12:41.236Z,67.06
2022-10-05T13:15:16.999Z,66.71
2022-10-05T13:17:51.528Z,67.16
2022-10-05T13:20:23.705Z,66.91
2022-10-05T13:22:58.163Z,66.17
2022-10-05T13:25:30.224Z,65.06
2022-10-05T13:28:12.038Z,65.85
2022-10-05T13:30:42.659Z,66.45
2022-10-05T13:33:17.975Z,65.48
2022-10-05T13:35:48.505Z,66.04
2022-10-05T13:38:28.414Z,64.36
2022-10-05T13:41:04.205Z,62.29
2022-10-05T13:43:39.645Z,62.40
2022-10-05T13:46:11.729Z,60.08
2022-10-05T13:48:52.213Z,61.59
2022-10-05T13:51:25.578Z,62.20
2022-10-05T13:53:57.578Z,60.43
2022-10-05T13:56:30.732Z,62.96
2022-10-05T13:59:06.542Z,59.58
2022-10-05T14:01:41.421Z,61.68
2022-10-05T14:04:17.930Z,63.34
2022-10-05T14:06:46.193Z,63.40
2022-10-05T14:09:18.918Z,63.99
2022-10-05T14:11:50.340Z,63.07
2022-10-05T14:14:28.152Z,62.67
2022-10-05T14:16:57.538Z,62.13
2022-10-05T14:19:27.941Z,62.37
2022-10-05T14:22:00.421Z,61.20
2022-10-05T14:24:45.674Z,61.01
2022-10-05T14:27:20.915Z,59.68
2022-10-05T14:30:01.390Z,61.80
2022-10-05T14:32:31.960Z,63.05
2022-10-05T14:35:14.974Z,65.39
2022-10-05T14:37:50.442Z,64.96
2022-10-05T14:40:32.863Z,64.24
2022-10-05T14:43:03.539Z,66.58
2022-10-05T14:45:35.395Z,65.98
2022-10-05T14:51:13.796Z,67.86
2022-10-05T14:53:44.420Z,67.56
2022-10-05T14:56:19.949Z,68.23
2022-10-05T14:59:01.375Z,68.54
2022-10-05T15:01:31.812Z,68.43
2022-10-05T15:04:08.118Z,70.37
2022-10-05T15:06:38.723Z,68.90
2022-10-05T15:09:24.506Z,69.82
2022-10-05T15:11:53.696Z,69.96
2022-10-05T15:14:24.501Z,71.76
2022-10-05T15:16:55.726Z,71.56
2022-10-05T15:19:28.708Z,71.11
2022-10-05T15:22:08.365Z,71.62
2022-10-05T15:24:43.335Z,70.45
2022-10-05T15:27:17.005Z,72.56
2022-10-05T15:29:54.827Z,71.77
2022-10-05T15:32:31.935Z,70.46
2022-10-05T15:35:18.297Z,70.52
2022-10-05T15:37:48.048Z,70.55
2022-10-05T15:40:21.794Z,70.76
2022-10-05T15:42:50.159Z,70.33
2022-10-05T15:45:23.794Z,70.58
2022-10-05T15:47:57.380Z,70.11
2022-10-05T15:50:27.708Z,69.58
2022-10-05T15:52:58.972Z,69.97
2022-10-05T15:55:39.921Z,70.68
2022-10-05T15:58:31.061Z,70.51
2022-10-05T16:01:03.787Z,70.11
2022-10-05T16:03:42.383Z,70.39
2022-10-05T16:06:33.758Z,72.89
2022-10-05T16:09:07.971Z,71.42
2022-10-05T16:11:51.225Z,72.32
2022-10-05T16:14:27.862Z,72.25
2022-10-05T16:17:06.047Z,71.71
2022-10-05T16:19:42.405Z,72.44
2022-10-05T16:22:18.981Z,71.84
2022-10-05T16:25:08.133Z,72.90
2022-10-05T16:27:48.862Z,72.55
2022-10-05T16:30:18.081Z,72.46
2022-10-05T16:32:50.210Z,72.35
2022-10-05T16:35:26.704Z,72.02
2022-10-05T16:38:02.427Z,71.57
2022-10-05T16:40:35.686Z,71.29
2022-10-05T16:43:08.617Z,71.75
2022-10-05T16:45:46.734Z,71.92
2022-10-05T16:48:21.930Z,71.78
2022-10-05T16:50:59.652Z,71.36
2022-10-05T16:53:30.298Z,70.78
2022-10-05T16:56:01.979Z,70.64
2022-10-05T16:58:39.112Z,70.51
2022-10-05T17:01:13.720Z,69.41
2022-10-05T17:03:52.152Z,71.23
2022-10-05T17:06:55.356Z,71.22
2022-10-05T17:09:53.314Z,71.10
2022-10-05T17:12:39.375Z,70.90
2022-10-05T17:15:20.667Z,72.32
2022-10-05T17:18:23.444Z,72.20
2022-10-05T17:20:56.753Z,71.89
2022-10-05T17:23:31.120Z,72.31
2022-10-05T17:26:09.270Z,73.21
2022-10-05T17:28:44.273Z,73.00
2022-10-05T17:31:17.750Z,73.40
2022-10-05T17:34:26.954Z,74.27
2022-10-05T17:36:57.720Z,74.19
2022-10-05T17:39:46.833Z,73.58
2022-10-05T17:42:49.474Z,74.51
2022-10-05T17:45:52.525Z,74.69
2022-10-05T17:48:44.398Z,75.50
2022-10-05T17:51:35.686Z,75.94
2022-10-05T17:54:39.043Z,75.38
2022-10-05T17:57:30.645Z,75.79
2022-10-05T18:00:02.113Z,76.00
2022-10-05T18:02:42.644Z,75.92
2022-10-05T18:05:27.516Z,75.84
2022-10-05T18:08:26.830Z,76.32
2022-10-05T18:11:16.930Z,76.94
2022-10-05T18:13:49.845Z,77.62
2022-10-05T18:16:47.130Z,76.61
2022-10-05T18:19:17.057Z,76.79
2022-10-05T18:22:04.371Z,76.42
2022-10-05T18:24:43.088Z,76.61
2022-10-05T18:27:34.103Z,77.22
2022-10-05T18:30:14.798Z,77.30
2022-10-05T18:33:07.563Z,77.75
2022-10-05T18:35:45.382Z,78.58
2022-10-05T18:38:27.998Z,79.27
2022-10-05T18:41:00.935Z,79.73
2022-10-05T18:43:32.704Z,79.87
2022-10-05T18:46:24.726Z,80.07
2022-10-05T18:49:02.985Z,81.40
2022-10-05T18:51:38.214Z,81.18
2022-10-05T18:54:14.858Z,81.71
2022-10-05T18:56:45.210Z,81.71
2022-10-05T18:59:26.621Z,82.85
2022-10-05T19:02:02.174Z,81.88
2022-10-05T19:04:38.211Z,82.20
2022-10-05T19:07:18.223Z,83.00
2022-10-05T19:09:55.757Z,81.94
2022-10-05T19:12:31.043Z,82.30
2022-10-05T19:15:06.605Z,83.21
2022-10-05T19:17:50.305Z,82.48
2022-10-05T19:20:22.293Z,83.21
2022-10-05T19:23:05.133Z,82.08
2022-10-05T19:25:38.894Z,81.73
2022-10-05T19:28:17.364Z,82.22
2022-10-05T19:30:54.206Z,81.51
2022-10-05T19:33:30.471Z,81.81
2022-10-05T19:36:05.816Z,82.05
2022-10-05T19:38:42.514Z,82.15
2022-10-05T19:41:15.296Z,81.80
2022-10-05T19:43:58.031Z,81.36
2022-10-05T19:46:36.210Z,81.49
2022-10-05T19:49:03.662Z,81.14
2022-10-05T19:51:32.656Z,80.48
2022-10-05T19:54:05.999Z,80.54
2022-10-05T19:56:34.869Z,80.77
2022-10-05T19:59:13.043Z,80.82
2022-10-05T20:01:44.236Z,79.86
2022-10-05T20:04:11.675Z,80.72
2022-10-05T20:06:39.545Z,81.20
2022-10-05T20:09:21.811Z,80.82
2022-10-05T20:11:50.552Z,81.18
2022-10-05T20:14:20.029Z,80.98
2022-10-05T20:17:05.149Z,81.04
2022-10-05T20:19:55.233Z,80.86
2022-10-05T20:22:31.439Z,81.43
2022-10-05T20:25:02.063Z,81.44
2022-10-05T20:27:46.793Z,81.77
2022-10-05T20:30:16.387Z,81.62
2022-10-05T20:32:45.537Z,82.43
2022-10-05T20:35:13.166Z,82.27
2022-10-05T20:37:41.271Z,81.80
2022-10-05T20:40:11.511Z,82.91
2022-10-05T20:42:39.168Z,82.90
2022-10-05T20:45:07.431Z,83.38
2022-10-05T20:47:37.524Z,83.91
2022-10-05T20:50:05.991Z,83.56
2022-10-05T20:52:33.543Z,83.96
2022-10-05T20:55:01.818Z,84.22
2022-10-05T20:57:31.609Z,84.37
2022-10-05T20:59:59.518Z,84.09
2022-10-05T21:02:28.564Z,84.34
2022-10-05T21:04:56.094Z,84.19
2022-10-05T21:07:25.598Z,83.73
2022-10-05T21:09:53.781Z,83.25
2022-10-05T21:12:21.166Z,83.31
2022-10-05T21:14:52.505Z,83.27
2022-10-05T21:17:20.102Z,83.43
2022-10-05T21:19:47.733Z,83.09
2022-10-05T21:22:15.129Z,82.33
2022-10-05T21:24:42.566Z,82.86
2022-10-05T21:27:10.130Z,82.48
2022-10-05T21:29:40.805Z,83.41
2022-10-05T21:32:11.624Z,83.57
2022-10-05T21:34:39.845Z,83.23
2022-10-05T21:37:07.747Z,83.92
2022-10-05T21:39:36.433Z,83.69
2022-10-05T21:42:04.140Z,83.44
2022-10-05T21:44:31.781Z,82.62
2022-10-05T21:46:59.335Z,84.18
2022-10-05T21:49:28.669Z,84.62
2022-10-05T21:51:56.303Z,84.34
2022-10-05T21:54:24.431Z,84.12
2022-10-05T21:56:53.225Z,84.25
2022-10-05T21:59:22.919Z,84.17
2022-10-05T22:01:50.492Z,84.09
2022-10-05T22:04:17.878Z,84.44
2022-10-05T22:06:46.679Z,83.72
2022-10-05T22:09:14.059Z,83.12
2022-10-05T22:11:41.547Z,83.51
2022-10-05T22:14:09.137Z,83.34
2022-10-05T22:16:38.859Z,83.19
2022-10-05T22:19:08.313Z,83.18
2022-10-05T22:21:38.076Z,83.01
2022-10-05T22:24:07.262Z,82.71
2022-10-05T22:26:35.842Z,82.73
2022-10-05T22:29:03.932Z,82.66
2022-10-05T22:31:31.429Z,82.01
2022-10-05T22:33:59.013Z,82.27
2022-10-05T22:36:26.633Z,81.73
2022-10-05T22:38:54.334Z,81.32
2022-10-05T22:41:23.144Z,81.17
2022-10-05T22:43:51.222Z,81.05
2022-10-05T22:46:19.730Z,81.04
2022-10-05T22:48:47.918Z,81.89
2022-10-05T22:51:15.326Z,82.32
2022-10-05T22:53:42.719Z,81.40
2022-10-05T22:56:12.391Z,81.42
2022-10-05T22:58:41.923Z,80.81
2022-10-05T23:01:11.137Z,81.72
2022-10-05T23:03:38.645Z,81.64
2022-10-05T23:06:08.953Z,81.98
2022-10-05T23:08:37.582Z,82.19
2022-10-05T23:11:05.363Z,82.69
2022-10-05T23:13:33.294Z,83.41
2022-10-05T23:16:08.604Z,83.96
2022-10-05T23:18:36.468Z,84.62
2022-10-05T23:21:05.584Z,85.42
2022-10-05T23:23:33.085Z,86.62
2022-10-05T23:26:01.238Z,86.61
2022-10-05T23:28:29.140Z,86.96
2022-10-05T23:31:00.786Z,86.02
2022-10-05T23:33:31.434Z,86.92
2022-10-05T23:36:00.135Z,87.85
2022-10-05T23:38:28.224Z,88.34
2022-10-05T23:40:56.018Z,90.15
2022-10-05T23:43:23.646Z,93.07
2022-10-05T23:45:51.113Z,95.64
2022-10-05T23:48:18.505Z,97.82
2022-10-05T23:50:48.135Z,99.06
2022-10-05T23:53:16.033Z,99.45
2022-10-05T23:55:43.773Z,99.87
2022-10-05T23:58:11.809Z,100.00
